sensor_id;sensor_type;location;lat;lon;timestamp;temperature;humidity
23087;DHT22;11712;51.134;4.156;2023-03-14T00:01:29;10.60;99.90
23087;DHT22;11712;51.134;4.156;2023-03-14T00:03:54;10.60;99.90
23087;DHT22;11712;51.134;4.156;2023-03-14T00:06:20;10.60;99.90
23087;DHT22;11712;51.134;4.156;2023-03-14T00:08:46;10.60;99.90
23087;DHT22;11712;51.134;4.156;2023-03-14T00:11:13;10.50;99.90
23087;DHT22;11712;51.134;4.156;2023-03-14T00:13:39;10.50;99.90
23087;DHT22;11712;51.134;4.156;2023-03-14T00:16:06;10.40;99.90
23087;DHT22;11712;51.134;4.156;2023-03-14T00:18:32;10.30;99.90
23087;DHT22;11712;51.134;4.156;2023-03-14T00:20:58;10.30;99.90
23087;DHT22;11712;51.134;4.156;2023-03-14T00:23:24;10.20;99.90
23087;DHT22;11712;51.134;4.156;2023-03-14T00:25:50;10.20;99.90
23087;DHT22;11712;51.134;4.156;2023-03-14T00:28:15;10.20;99.90
23087;DHT22;11712;51.134;4.156;2023-03-14T00:30:41;10.30;99.90
23087;DHT22;11712;51.134;4.156;2023-03-14T00:33:06;10.40;99.90
23087;DHT22;11712;51.134;4.156;2023-03-14T00:35:32;10.40;99.90
23087;DHT22;11712;51.134;4.156;2023-03-14T00:37:57;10.40;99.90
23087;DHT22;11712;51.134;4.156;2023-03-14T00:40:23;10.50;99.90
23087;DHT22;11712;51.134;4.156;2023-03-14T00:42:49;10.50;99.90
23087;DHT22;11712;51.134;4.156;2023-03-14T00:45:14;10.50;99.90
23087;DHT22;11712;51.134;4.156;2023-03-14T00:47:40;10.60;99.90
23087;DHT22;11712;51.134;4.156;2023-03-14T00:50:06;10.50;99.90
23087;DHT22;11712;51.134;4.156;2023-03-14T00:52:31;10.50;99.90
23087;DHT22;11712;51.134;4.156;2023-03-14T00:54:57;10.50;99.90
23087;DHT22;11712;51.134;4.156;2023-03-14T00:57:22;10.60;99.90
23087;DHT22;11712;51.134;4.156;2023-03-14T00:59:48;10.50;99.90
23087;DHT22;11712;51.134;4.156;2023-03-14T01:02:14;10.50;99.90
23087;DHT22;11712;51.134;4.156;2023-03-14T01:04:39;10.50;99.90
23087;DHT22;11712;51.134;4.156;2023-03-14T01:07:05;10.40;99.90
23087;DHT22;11712;51.134;4.156;2023-03-14T01:09:30;10.30;99.90
23087;DHT22;11712;51.134;4.156;2023-03-14T01:11:56;10.40;99.90
23087;DHT22;11712;51.134;4.156;2023-03-14T01:14:21;10.40;99.90
23087;DHT22;11712;51.134;4.156;2023-03-14T01:16:47;10.20;99.90
23087;DHT22;11712;51.134;4.156;2023-03-14T01:19:12;10.10;99.90
23087;DHT22;11712;51.134;4.156;2023-03-14T01:21:38;10.10;99.90
23087;DHT22;11712;51.134;4.156;2023-03-14T01:24:04;10.20;99.90
23087;DHT22;11712;51.134;4.156;2023-03-14T01:26:31;10.10;99.90
23087;DHT22;11712;51.134;4.156;2023-03-14T01:28:57;10.10;99.90
23087;DHT22;11712;51.134;4.156;2023-03-14T01:31:23;10.00;99.90
23087;DHT22;11712;51.134;4.156;2023-03-14T01:33:49;10.10;99.90
23087;DHT22;11712;51.134;4.156;2023-03-14T01:36:14;10.10;99.90
23087;DHT22;11712;51.134;4.156;2023-03-14T01:38:40;10.20;99.90
23087;DHT22;11712;51.134;4.156;2023-03-14T01:41:07;10.30;99.90
23087;DHT22;11712;51.134;4.156;2023-03-14T01:43:32;10.30;99.90
23087;DHT22;11712;51.134;4.156;2023-03-14T01:50:58;10.30;99.90
23087;DHT22;11712;51.134;4.156;2023-03-14T01:53:24;10.20;99.90
23087;DHT22;11712;51.134;4.156;2023-03-14T01:55:50;10.30;99.90
23087;DHT22;11712;51.134;4.156;2023-03-14T01:58:16;10.20;99.90
23087;DHT22;11712;51.134;4.156;2023-03-14T02:00:42;10.10;99.90
23087;DHT22;11712;51.134;4.156;2023-03-14T02:03:15;10.10;99.90
23087;DHT22;11712;51.134;4.156;2023-03-14T02:05:42;10.10;99.90
23087;DHT22;11712;51.134;4.156;2023-03-14T02:08:10;10.20;99.90
23087;DHT22;11712;51.134;4.156;2023-03-14T02:10:38;10.30;99.90
23087;DHT22;11712;51.134;4.156;2023-03-14T02:13:04;10.30;99.90
23087;DHT22;11712;51.134;4.156;2023-03-14T02:15:30;10.30;99.90
23087;DHT22;11712;51.134;4.156;2023-03-14T02:17:56;10.30;99.90
23087;DHT22;11712;51.134;4.156;2023-03-14T02:22:47;10.40;99.90
23087;DHT22;11712;51.134;4.156;2023-03-14T02:27:48;10.40;99.90
23087;DHT22;11712;51.134;4.156;2023-03-14T02:30:18;10.40;99.90
23087;DHT22;11712;51.134;4.156;2023-03-14T02:32:46;10.40;99.90
23087;DHT22;11712;51.134;4.156;2023-03-14T02:35:12;10.40;99.90
23087;DHT22;11712;51.134;4.156;2023-03-14T02:40:43;10.50;99.90
23087;DHT22;11712;51.134;4.156;2023-03-14T02:43:09;10.40;99.90
23087;DHT22;11712;51.134;4.156;2023-03-14T02:45:36;10.40;99.90
23087;DHT22;11712;51.134;4.156;2023-03-14T02:48:04;10.40;99.90
23087;DHT22;11712;51.134;4.156;2023-03-14T02:50:32;10.30;99.90
23087;DHT22;11712;51.134;4.156;2023-03-14T02:52:58;10.30;99.90
23087;DHT22;11712;51.134;4.156;2023-03-14T02:55:24;10.40;99.90
23087;DHT22;11712;51.134;4.156;2023-03-14T02:57:51;10.40;99.90
23087;DHT22;11712;51.134;4.156;2023-03-14T03:00:17;10.40;99.90
23087;DHT22;11712;51.134;4.156;2023-03-14T03:02:43;10.40;99.90
23087;DHT22;11712;51.134;4.156;2023-03-14T03:05:08;10.40;99.90
23087;DHT22;11712;51.134;4.156;2023-03-14T03:07:34;10.40;99.90
23087;DHT22;11712;51.134;4.156;2023-03-14T03:09:59;10.30;99.90
23087;DHT22;11712;51.134;4.156;2023-03-14T03:12:25;10.30;99.90
23087;DHT22;11712;51.134;4.156;2023-03-14T03:14:50;10.20;99.90
23087;DHT22;11712;51.134;4.156;2023-03-14T03:17:16;10.20;99.90
23087;DHT22;11712;51.134;4.156;2023-03-14T03:19:43;10.10;99.90
23087;DHT22;11712;51.134;4.156;2023-03-14T03:22:08;10.20;99.90
23087;DHT22;11712;51.134;4.156;2023-03-14T03:24:34;10.20;99.90
23087;DHT22;11712;51.134;4.156;2023-03-14T03:27:00;10.10;99.90
23087;DHT22;11712;51.134;4.156;2023-03-14T03:29:25;10.10;99.90
23087;DHT22;11712;51.134;4.156;2023-03-14T03:31:51;10.10;99.90
23087;DHT22;11712;51.134;4.156;2023-03-14T03:34:16;10.00;99.90
23087;DHT22;11712;51.134;4.156;2023-03-14T03:36:42;10.10;99.90
23087;DHT22;11712;51.134;4.156;2023-03-14T03:39:07;10.10;99.90
23087;DHT22;11712;51.134;4.156;2023-03-14T03:41:33;10.10;99.90
23087;DHT22;11712;51.134;4.156;2023-03-14T03:43:59;10.10;99.90
23087;DHT22;11712;51.134;4.156;2023-03-14T03:46:24;10.10;99.90
23087;DHT22;11712;51.134;4.156;2023-03-14T03:48:59;10.20;99.90
23087;DHT22;11712;51.134;4.156;2023-03-14T03:51:25;10.20;99.90
23087;DHT22;11712;51.134;4.156;2023-03-14T03:53:51;10.20;99.90
23087;DHT22;11712;51.134;4.156;2023-03-14T03:56:16;10.10;99.90
23087;DHT22;11712;51.134;4.156;2023-03-14T03:58:42;10.10;99.90
23087;DHT22;11712;51.134;4.156;2023-03-14T04:01:08;10.20;99.90
23087;DHT22;11712;51.134;4.156;2023-03-14T04:03:34;10.20;99.90
23087;DHT22;11712;51.134;4.156;2023-03-14T04:08:25;10.20;99.90
23087;DHT22;11712;51.134;4.156;2023-03-14T04:10:53;10.20;99.90
23087;DHT22;11712;51.134;4.156;2023-03-14T04:13:19;10.20;99.90
23087;DHT22;11712;51.134;4.156;2023-03-14T04:15:44;10.20;99.90
23087;DHT22;11712;51.134;4.156;2023-03-14T04:18:10;10.30;99.90
23087;DHT22;11712;51.134;4.156;2023-03-14T04:20:35;10.30;99.90
23087;DHT22;11712;51.134;4.156;2023-03-14T04:23:01;10.30;99.90
23087;DHT22;11712;51.134;4.156;2023-03-14T04:25:26;10.30;99.90
23087;DHT22;11712;51.134;4.156;2023-03-14T04:27:52;10.20;99.90
23087;DHT22;11712;51.134;4.156;2023-03-14T04:30:17;10.20;99.90
23087;DHT22;11712;51.134;4.156;2023-03-14T04:32:43;10.20;99.90
23087;DHT22;11712;51.134;4.156;2023-03-14T04:35:09;10.20;99.90
23087;DHT22;11712;51.134;4.156;2023-03-14T04:37:34;10.20;99.90
23087;DHT22;11712;51.134;4.156;2023-03-14T04:40:00;10.20;99.90
23087;DHT22;11712;51.134;4.156;2023-03-14T04:42:25;10.10;99.90
23087;DHT22;11712;51.134;4.156;2023-03-14T04:44:51;10.10;99.90
23087;DHT22;11712;51.134;4.156;2023-03-14T04:47:16;10.10;99.90
23087;DHT22;11712;51.134;4.156;2023-03-14T04:49:42;10.10;99.90
23087;DHT22;11712;51.134;4.156;2023-03-14T04:52:08;10.10;99.90
23087;DHT22;11712;51.134;4.156;2023-03-14T04:54:33;10.10;99.90
23087;DHT22;11712;51.134;4.156;2023-03-14T04:56:59;10.10;99.90
23087;DHT22;11712;51.134;4.156;2023-03-14T04:59:24;10.10;99.90
23087;DHT22;11712;51.134;4.156;2023-03-14T05:01:50;10.10;99.90
23087;DHT22;11712;51.134;4.156;2023-03-14T05:04:16;10.10;99.90
23087;DHT22;11712;51.134;4.156;2023-03-14T05:06:41;10.10;99.90
23087;DHT22;11712;51.134;4.156;2023-03-14T05:09:07;10.10;99.90
23087;DHT22;11712;51.134;4.156;2023-03-14T05:11:33;10.20;99.90
23087;DHT22;11712;51.134;4.156;2023-03-14T05:13:58;10.20;99.90
23087;DHT22;11712;51.134;4.156;2023-03-14T05:16:24;10.10;99.90
23087;DHT22;11712;51.134;4.156;2023-03-14T05:18:50;10.20;99.90
23087;DHT22;11712;51.134;4.156;2023-03-14T05:21:15;10.20;99.90
23087;DHT22;11712;51.134;4.156;2023-03-14T05:23:41;10.30;99.90
23087;DHT22;11712;51.134;4.156;2023-03-14T05:26:06;10.30;99.90
23087;DHT22;11712;51.134;4.156;2023-03-14T05:28:32;10.30;99.90
23087;DHT22;11712;51.134;4.156;2023-03-14T05:30:57;10.40;99.90
23087;DHT22;11712;51.134;4.156;2023-03-14T05:33:23;10.40;99.90
23087;DHT22;11712;51.134;4.156;2023-03-14T05:35:48;10.40;99.90
23087;DHT22;11712;51.134;4.156;2023-03-14T05:38:14;10.40;99.90
23087;DHT22;11712;51.134;4.156;2023-03-14T05:40:39;10.40;99.90
23087;DHT22;11712;51.134;4.156;2023-03-14T05:43:05;10.30;99.90
23087;DHT22;11712;51.134;4.156;2023-03-14T05:45:33;10.30;99.90
23087;DHT22;11712;51.134;4.156;2023-03-14T05:47:59;10.30;99.90
23087;DHT22;11712;51.134;4.156;2023-03-14T05:50:25;10.30;99.90
23087;DHT22;11712;51.134;4.156;2023-03-14T05:52:50;10.20;99.90
23087;DHT22;11712;51.134;4.156;2023-03-14T05:55:16;10.20;99.90
23087;DHT22;11712;51.134;4.156;2023-03-14T05:57:41;10.20;99.90
23087;DHT22;11712;51.134;4.156;2023-03-14T06:00:07;10.20;99.90
23087;DHT22;11712;51.134;4.156;2023-03-14T06:02:33;10.20;99.90
23087;DHT22;11712;51.134;4.156;2023-03-14T06:04:58;10.20;99.90
23087;DHT22;11712;51.134;4.156;2023-03-14T06:07:24;10.20;99.90
23087;DHT22;11712;51.134;4.156;2023-03-14T06:09:49;10.20;99.90
23087;DHT22;11712;51.134;4.156;2023-03-14T06:12:15;10.10;99.90
23087;DHT22;11712;51.134;4.156;2023-03-14T06:14:40;10.10;99.90
23087;DHT22;11712;51.134;4.156;2023-03-14T06:17:06;10.00;99.90
23087;DHT22;11712;51.134;4.156;2023-03-14T06:19:32;9.60;99.90
23087;DHT22;11712;51.134;4.156;2023-03-14T06:21:57;9.10;99.90
23087;DHT22;11712;51.134;4.156;2023-03-14T06:24:23;8.80;99.90
23087;DHT22;11712;51.134;4.156;2023-03-14T06:26:48;8.50;99.90
23087;DHT22;11712;51.134;4.156;2023-03-14T06:29:14;8.30;99.90
23087;DHT22;11712;51.134;4.156;2023-03-14T06:31:39;8.10;99.90
23087;DHT22;11712;51.134;4.156;2023-03-14T06:34:05;7.90;99.90
23087;DHT22;11712;51.134;4.156;2023-03-14T06:36:30;7.90;99.90
23087;DHT22;11712;51.134;4.156;2023-03-14T06:38:56;7.80;99.90
23087;DHT22;11712;51.134;4.156;2023-03-14T06:41:21;7.70;99.90
23087;DHT22;11712;51.134;4.156;2023-03-14T06:43:49;7.60;99.90
23087;DHT22;11712;51.134;4.156;2023-03-14T06:46:14;7.50;99.90
23087;DHT22;11712;51.134;4.156;2023-03-14T06:48:40;7.60;99.90
23087;DHT22;11712;51.134;4.156;2023-03-14T06:51:06;7.50;99.90
23087;DHT22;11712;51.134;4.156;2023-03-14T06:53:32;7.50;99.90
23087;DHT22;11712;51.134;4.156;2023-03-14T06:55:57;7.50;99.90
23087;DHT22;11712;51.134;4.156;2023-03-14T06:58:23;7.50;99.90
23087;DHT22;11712;51.134;4.156;2023-03-14T07:00:48;7.50;99.90
23087;DHT22;11712;51.134;4.156;2023-03-14T07:03:14;7.40;99.90
23087;DHT22;11712;51.134;4.156;2023-03-14T07:05:40;7.30;99.90
23087;DHT22;11712;51.134;4.156;2023-03-14T07:08:07;7.30;99.90
23087;DHT22;11712;51.134;4.156;2023-03-14T07:10:32;7.30;99.90
23087;DHT22;11712;51.134;4.156;2023-03-14T07:12:58;7.30;99.90
23087;DHT22;11712;51.134;4.156;2023-03-14T07:15:23;7.30;99.90
23087;DHT22;11712;51.134;4.156;2023-03-14T07:17:49;7.30;99.90
23087;DHT22;11712;51.134;4.156;2023-03-14T07:20:15;7.30;99.90
23087;DHT22;11712;51.134;4.156;2023-03-14T07:22:41;7.30;99.90
23087;DHT22;11712;51.134;4.156;2023-03-14T07:25:06;7.30;99.90
23087;DHT22;11712;51.134;4.156;2023-03-14T07:27:34;7.30;99.90
23087;DHT22;11712;51.134;4.156;2023-03-14T07:30:00;7.30;99.90
23087;DHT22;11712;51.134;4.156;2023-03-14T07:32:25;7.30;99.90
23087;DHT22;11712;51.134;4.156;2023-03-14T07:34:51;7.40;99.90
23087;DHT22;11712;51.134;4.156;2023-03-14T07:37:16;7.40;99.90
23087;DHT22;11712;51.134;4.156;2023-03-14T07:39:42;7.40;99.90
23087;DHT22;11712;51.134;4.156;2023-03-14T07:42:07;7.50;99.90
23087;DHT22;11712;51.134;4.156;2023-03-14T07:44:33;7.50;99.90
23087;DHT22;11712;51.134;4.156;2023-03-14T07:46:58;7.40;99.90
23087;DHT22;11712;51.134;4.156;2023-03-14T07:49:24;7.40;99.90
23087;DHT22;11712;51.134;4.156;2023-03-14T07:51:50;7.40;99.90
23087;DHT22;11712;51.134;4.156;2023-03-14T07:54:15;7.40;99.90
23087;DHT22;11712;51.134;4.156;2023-03-14T07:56:41;7.40;99.90
23087;DHT22;11712;51.134;4.156;2023-03-14T07:59:07;7.40;99.90
23087;DHT22;11712;51.134;4.156;2023-03-14T08:01:32;7.40;99.90
23087;DHT22;11712;51.134;4.156;2023-03-14T08:03:58;7.40;99.90
23087;DHT22;11712;51.134;4.156;2023-03-14T08:06:24;7.40;99.90
23087;DHT22;11712;51.134;4.156;2023-03-14T08:08:49;7.40;99.90
23087;DHT22;11712;51.134;4.156;2023-03-14T08:11:15;7.40;99.90
23087;DHT22;11712;51.134;4.156;2023-03-14T08:13:41;7.30;99.90
23087;DHT22;11712;51.134;4.156;2023-03-14T08:16:06;7.40;99.90
23087;DHT22;11712;51.134;4.156;2023-03-14T08:18:32;7.40;99.90
23087;DHT22;11712;51.134;4.156;2023-03-14T08:20:57;7.40;99.90
23087;DHT22;11712;51.134;4.156;2023-03-14T08:23:23;7.40;99.90
23087;DHT22;11712;51.134;4.156;2023-03-14T08:25:49;7.40;99.90
23087;DHT22;11712;51.134;4.156;2023-03-14T08:28:16;7.40;99.90
23087;DHT22;11712;51.134;4.156;2023-03-14T08:30:41;7.40;99.90
23087;DHT22;11712;51.134;4.156;2023-03-14T08:33:07;7.40;99.90
23087;DHT22;11712;51.134;4.156;2023-03-14T08:35:33;7.40;99.90
23087;DHT22;11712;51.134;4.156;2023-03-14T08:37:58;7.40;99.90
23087;DHT22;11712;51.134;4.156;2023-03-14T08:40:24;7.40;99.90
23087;DHT22;11712;51.134;4.156;2023-03-14T08:42:49;7.50;99.90
23087;DHT22;11712;51.134;4.156;2023-03-14T08:45:15;7.60;99.90
23087;DHT22;11712;51.134;4.156;2023-03-14T08:47:42;7.50;99.90
23087;DHT22;11712;51.134;4.156;2023-03-14T08:50:08;7.50;99.90
23087;DHT22;11712;51.134;4.156;2023-03-14T08:52:34;7.50;99.90
23087;DHT22;11712;51.134;4.156;2023-03-14T08:55:00;7.50;99.90
23087;DHT22;11712;51.134;4.156;2023-03-14T08:57:25;7.40;99.90
23087;DHT22;11712;51.134;4.156;2023-03-14T08:59:54;7.40;99.90
23087;DHT22;11712;51.134;4.156;2023-03-14T09:02:21;7.40;99.90
23087;DHT22;11712;51.134;4.156;2023-03-14T09:04:46;7.40;99.90
23087;DHT22;11712;51.134;4.156;2023-03-14T09:07:12;7.40;99.90
23087;DHT22;11712;51.134;4.156;2023-03-14T09:09:37;7.50;99.90
23087;DHT22;11712;51.134;4.156;2023-03-14T09:12:03;7.60;99.90
23087;DHT22;11712;51.134;4.156;2023-03-14T09:14:30;7.70;99.90
23087;DHT22;11712;51.134;4.156;2023-03-14T09:16:56;7.70;99.90
23087;DHT22;11712;51.134;4.156;2023-03-14T09:19:21;7.70;99.90
23087;DHT22;11712;51.134;4.156;2023-03-14T09:21:47;7.80;99.90
23087;DHT22;11712;51.134;4.156;2023-03-14T09:24:12;7.80;99.90
23087;DHT22;11712;51.134;4.156;2023-03-14T09:26:38;7.60;99.90
23087;DHT22;11712;51.134;4.156;2023-03-14T09:29:03;7.60;99.90
23087;DHT22;11712;51.134;4.156;2023-03-14T09:31:29;7.50;99.90
23087;DHT22;11712;51.134;4.156;2023-03-14T09:33:55;7.30;99.90
23087;DHT22;11712;51.134;4.156;2023-03-14T09:36:21;7.20;99.90
23087;DHT22;11712;51.134;4.156;2023-03-14T09:38:46;7.10;99.90
23087;DHT22;11712;51.134;4.156;2023-03-14T09:41:20;7.00;99.90
23087;DHT22;11712;51.134;4.156;2023-03-14T09:43:47;7.00;99.90
23087;DHT22;11712;51.134;4.156;2023-03-14T09:46:16;6.80;99.90
23087;DHT22;11712;51.134;4.156;2023-03-14T09:48:42;6.80;99.90
23087;DHT22;11712;51.134;4.156;2023-03-14T09:51:12;6.70;99.90
23087;DHT22;11712;51.134;4.156;2023-03-14T09:53:40;6.70;99.90
23087;DHT22;11712;51.134;4.156;2023-03-14T09:56:16;6.80;99.90
23087;DHT22;11712;51.134;4.156;2023-03-14T09:58:43;6.80;99.90
23087;DHT22;11712;51.134;4.156;2023-03-14T10:01:11;6.70;99.90
23087;DHT22;11712;51.134;4.156;2023-03-14T10:03:38;6.80;99.90
23087;DHT22;11712;51.134;4.156;2023-03-14T10:06:09;6.90;99.90
23087;DHT22;11712;51.134;4.156;2023-03-14T10:08:38;7.00;99.90
23087;DHT22;11712;51.134;4.156;2023-03-14T10:11:04;7.10;99.90
23087;DHT22;11712;51.134;4.156;2023-03-14T10:13:29;7.00;99.90
23087;DHT22;11712;51.134;4.156;2023-03-14T10:15:58;6.90;99.90
23087;DHT22;11712;51.134;4.156;2023-03-14T10:18:24;6.80;99.90
23087;DHT22;11712;51.134;4.156;2023-03-14T10:21:01;6.80;99.90
23087;DHT22;11712;51.134;4.156;2023-03-14T10:23:28;6.80;99.90
23087;DHT22;11712;51.134;4.156;2023-03-14T10:26:14;6.80;99.90
23087;DHT22;11712;51.134;4.156;2023-03-14T10:28:43;6.80;99.90
23087;DHT22;11712;51.134;4.156;2023-03-14T10:31:09;6.80;99.90
23087;DHT22;11712;51.134;4.156;2023-03-14T10:33:35;6.80;99.90
23087;DHT22;11712;51.134;4.156;2023-03-14T10:36:05;6.70;99.90
23087;DHT22;11712;51.134;4.156;2023-03-14T10:38:36;6.70;99.90
23087;DHT22;11712;51.134;4.156;2023-03-14T10:41:01;6.60;99.90
23087;DHT22;11712;51.134;4.156;2023-03-14T10:43:34;6.60;99.90
23087;DHT22;11712;51.134;4.156;2023-03-14T10:46:23;6.60;99.90
23087;DHT22;11712;51.134;4.156;2023-03-14T10:48:46;6.60;99.90
23087;DHT22;11712;51.134;4.156;2023-03-14T10:56:11;6.70;99.90
23087;DHT22;11712;51.134;4.156;2023-03-14T10:58:41;6.80;99.90
23087;DHT22;11712;51.134;4.156;2023-03-14T11:03:35;7.00;99.90
23087;DHT22;11712;51.134;4.156;2023-03-14T11:06:05;7.00;99.90
23087;DHT22;11712;51.134;4.156;2023-03-14T11:13:48;7.20;99.90
23087;DHT22;11712;51.134;4.156;2023-03-14T11:21:37;7.70;99.90
23087;DHT22;11712;51.134;4.156;2023-03-14T11:31:48;7.70;99.90
23087;DHT22;11712;51.134;4.156;2023-03-14T11:34:17;7.80;99.90
23087;DHT22;11712;51.134;4.156;2023-03-14T11:39:16;7.90;99.90
23087;DHT22;11712;51.134;4.156;2023-03-14T11:41:51;7.60;99.90
23087;DHT22;11712;51.134;4.156;2023-03-14T11:46:53;7.60;99.90
23087;DHT22;11712;51.134;4.156;2023-03-14T11:51:58;7.90;99.90
23087;DHT22;11712;51.134;4.156;2023-03-14T11:57:26;8.40;99.90
23087;DHT22;11712;51.134;4.156;2023-03-14T11:59:47;8.60;99.90
23087;DHT22;11712;51.134;4.156;2023-03-14T12:07:29;9.10;99.90
23087;DHT22;11712;51.134;4.156;2023-03-14T12:09:56;9.00;99.90
23087;DHT22;11712;51.134;4.156;2023-03-14T12:12:23;8.40;99.90
23087;DHT22;11712;51.134;4.156;2023-03-14T12:14:56;7.60;99.90
23087;DHT22;11712;51.134;4.156;2023-03-14T12:17:26;7.40;99.90
23087;DHT22;11712;51.134;4.156;2023-03-14T12:20:25;7.40;99.90
23087;DHT22;11712;51.134;4.156;2023-03-14T12:22:48;7.30;99.90
23087;DHT22;11712;51.134;4.156;2023-03-14T12:25:15;7.30;99.90
23087;DHT22;11712;51.134;4.156;2023-03-14T12:28:03;7.30;99.90
23087;DHT22;11712;51.134;4.156;2023-03-14T12:30:30;7.30;99.90
23087;DHT22;11712;51.134;4.156;2023-03-14T12:35:42;7.50;99.90
23087;DHT22;11712;51.134;4.156;2023-03-14T12:38:51;7.70;99.90
23087;DHT22;11712;51.134;4.156;2023-03-14T12:43:29;8.00;99.90
23087;DHT22;11712;51.134;4.156;2023-03-14T12:48:40;8.40;99.90
23087;DHT22;11712;51.134;4.156;2023-03-14T12:51:13;8.50;99.90
23087;DHT22;11712;51.134;4.156;2023-03-14T12:58:53;8.50;99.90
23087;DHT22;11712;51.134;4.156;2023-03-14T13:01:20;8.30;99.90
23087;DHT22;11712;51.134;4.156;2023-03-14T13:03:56;8.10;99.90
23087;DHT22;11712;51.134;4.156;2023-03-14T13:11:51;8.30;99.90
23087;DHT22;11712;51.134;4.156;2023-03-14T13:14:16;8.20;99.90
23087;DHT22;11712;51.134;4.156;2023-03-14T13:16:43;8.30;99.90
23087;DHT22;11712;51.134;4.156;2023-03-14T13:19:19;8.40;99.90
23087;DHT22;11712;51.134;4.156;2023-03-14T13:21:45;8.50;99.90
23087;DHT22;11712;51.134;4.156;2023-03-14T13:24:20;8.70;99.90
23087;DHT22;11712;51.134;4.156;2023-03-14T13:26:46;8.60;99.90
23087;DHT22;11712;51.134;4.156;2023-03-14T13:31:43;8.60;99.90
23087;DHT22;11712;51.134;4.156;2023-03-14T13:34:09;8.70;99.90
23087;DHT22;11712;51.134;4.156;2023-03-14T13:36:35;8.70;99.90
23087;DHT22;11712;51.134;4.156;2023-03-14T13:39:01;8.60;99.90
23087;DHT22;11712;51.134;4.156;2023-03-14T13:41:27;8.60;99.90
23087;DHT22;11712;51.134;4.156;2023-03-14T13:44:54;8.80;99.90
23087;DHT22;11712;51.134;4.156;2023-03-14T13:46:48;8.80;99.90
23087;DHT22;11712;51.134;4.156;2023-03-14T13:49:20;9.10;99.90
23087;DHT22;11712;51.134;4.156;2023-03-14T13:51:46;9.10;99.90
23087;DHT22;11712;51.134;4.156;2023-03-14T13:54:13;9.20;99.90
23087;DHT22;11712;51.134;4.156;2023-03-14T13:56:39;9.00;99.90
23087;DHT22;11712;51.134;4.156;2023-03-14T13:59:20;8.90;99.90
23087;DHT22;11712;51.134;4.156;2023-03-14T14:01:46;8.80;99.90
23087;DHT22;11712;51.134;4.156;2023-03-14T14:04:16;8.60;99.90
23087;DHT22;11712;51.134;4.156;2023-03-14T14:06:44;8.50;99.90
23087;DHT22;11712;51.134;4.156;2023-03-14T14:09:15;8.00;99.90
23087;DHT22;11712;51.134;4.156;2023-03-14T14:11:43;7.80;99.90
23087;DHT22;11712;51.134;4.156;2023-03-14T14:14:13;7.70;99.90
23087;DHT22;11712;51.134;4.156;2023-03-14T14:16:41;7.70;99.90
23087;DHT22;11712;51.134;4.156;2023-03-14T14:19:07;7.60;99.90
23087;DHT22;11712;51.134;4.156;2023-03-14T14:21:32;7.60;99.90
23087;DHT22;11712;51.134;4.156;2023-03-14T14:23:58;7.70;99.90
23087;DHT22;11712;51.134;4.156;2023-03-14T14:26:25;7.80;99.90
23087;DHT22;11712;51.134;4.156;2023-03-14T14:29:04;8.00;99.90
23087;DHT22;11712;51.134;4.156;2023-03-14T14:31:30;7.90;99.90
23087;DHT22;11712;51.134;4.156;2023-03-14T14:33:57;8.10;99.90
23087;DHT22;11712;51.134;4.156;2023-03-14T14:36:44;8.20;99.90
23087;DHT22;11712;51.134;4.156;2023-03-14T14:41:35;8.30;99.90
23087;DHT22;11712;51.134;4.156;2023-03-14T14:44:04;7.90;99.90
23087;DHT22;11712;51.134;4.156;2023-03-14T14:46:30;7.70;99.90
23087;DHT22;11712;51.134;4.156;2023-03-14T14:49:09;7.70;99.90
23087;DHT22;11712;51.134;4.156;2023-03-14T14:51:41;7.70;99.90
23087;DHT22;11712;51.134;4.156;2023-03-14T14:54:14;7.70;99.90
23087;DHT22;11712;51.134;4.156;2023-03-14T14:56:40;7.70;99.90
23087;DHT22;11712;51.134;4.156;2023-03-14T14:59:06;7.70;99.90
23087;DHT22;11712;51.134;4.156;2023-03-14T15:01:36;7.90;99.90
23087;DHT22;11712;51.134;4.156;2023-03-14T15:04:04;8.10;99.90
23087;DHT22;11712;51.134;4.156;2023-03-14T15:06:30;8.30;99.90
23087;DHT22;11712;51.134;4.156;2023-03-14T15:08:56;8.30;99.90
23087;DHT22;11712;51.134;4.156;2023-03-14T15:11:23;8.20;99.90
23087;DHT22;11712;51.134;4.156;2023-03-14T15:13:52;8.20;99.90
23087;DHT22;11712;51.134;4.156;2023-03-14T15:16:19;8.20;99.90
23087;DHT22;11712;51.134;4.156;2023-03-14T15:18:52;8.20;99.90
23087;DHT22;11712;51.134;4.156;2023-03-14T15:21:18;8.20;99.90
23087;DHT22;11712;51.134;4.156;2023-03-14T15:23:44;7.90;99.90
23087;DHT22;11712;51.134;4.156;2023-03-14T15:26:19;8.10;99.90
23087;DHT22;11712;51.134;4.156;2023-03-14T15:28:45;8.10;99.90
23087;DHT22;11712;51.134;4.156;2023-03-14T15:31:11;7.90;99.90
23087;DHT22;11712;51.134;4.156;2023-03-14T15:33:37;7.80;99.90
23087;DHT22;11712;51.134;4.156;2023-03-14T15:36:13;8.00;99.90
23087;DHT22;11712;51.134;4.156;2023-03-14T15:38:42;8.00;99.90
23087;DHT22;11712;51.134;4.156;2023-03-14T15:41:07;8.10;99.90
23087;DHT22;11712;51.134;4.156;2023-03-14T15:43:34;8.10;99.90
23087;DHT22;11712;51.134;4.156;2023-03-14T15:46:00;8.40;99.90
23087;DHT22;11712;51.134;4.156;2023-03-14T15:48:25;8.50;99.90
23087;DHT22;11712;51.134;4.156;2023-03-14T15:50:51;8.40;99.90
23087;DHT22;11712;51.134;4.156;2023-03-14T15:53:16;8.30;99.90
23087;DHT22;11712;51.134;4.156;2023-03-14T15:55:42;8.10;99.90
23087;DHT22;11712;51.134;4.156;2023-03-14T15:58:14;8.10;99.90
23087;DHT22;11712;51.134;4.156;2023-03-14T16:00:41;8.30;99.90
23087;DHT22;11712;51.134;4.156;2023-03-14T16:03:06;8.30;99.90
23087;DHT22;11712;51.134;4.156;2023-03-14T16:05:32;8.30;99.90
23087;DHT22;11712;51.134;4.156;2023-03-14T16:07:57;8.10;99.90
23087;DHT22;11712;51.134;4.156;2023-03-14T16:10:23;8.10;99.90
23087;DHT22;11712;51.134;4.156;2023-03-14T16:12:49;8.00;99.90
23087;DHT22;11712;51.134;4.156;2023-03-14T16:15:14;8.20;99.90
23087;DHT22;11712;51.134;4.156;2023-03-14T16:17:40;8.30;99.90
23087;DHT22;11712;51.134;4.156;2023-03-14T16:20:08;8.50;99.90
23087;DHT22;11712;51.134;4.156;2023-03-14T16:22:33;8.60;99.90
23087;DHT22;11712;51.134;4.156;2023-03-14T16:25:00;9.00;99.90
23087;DHT22;11712;51.134;4.156;2023-03-14T16:27:26;9.20;99.90
23087;DHT22;11712;51.134;4.156;2023-03-14T16:29:51;8.90;99.90
23087;DHT22;11712;51.134;4.156;2023-03-14T16:32:17;8.70;99.90
23087;DHT22;11712;51.134;4.156;2023-03-14T16:34:43;8.50;99.90
23087;DHT22;11712;51.134;4.156;2023-03-14T16:37:09;8.40;99.90
23087;DHT22;11712;51.134;4.156;2023-03-14T16:39:34;8.20;99.90
23087;DHT22;11712;51.134;4.156;2023-03-14T16:42:00;8.10;99.90
23087;DHT22;11712;51.134;4.156;2023-03-14T16:44:25;8.20;99.90
23087;DHT22;11712;51.134;4.156;2023-03-14T16:46:51;7.90;99.90
23087;DHT22;11712;51.134;4.156;2023-03-14T16:49:16;7.50;99.90
23087;DHT22;11712;51.134;4.156;2023-03-14T16:51:42;7.70;99.90
23087;DHT22;11712;51.134;4.156;2023-03-14T16:54:08;7.70;99.90
23087;DHT22;11712;51.134;4.156;2023-03-14T16:56:33;7.60;99.90
23087;DHT22;11712;51.134;4.156;2023-03-14T16:58:59;7.50;99.90